createdAt,value
2017-12-16T00:01:07.035Z,2.40
2017-12-16T00:06:08.374Z,2.73
2017-12-16T00:08:36.697Z,3.10
2017-12-16T00:11:07.417Z,2.30
2017-12-16T00:16:09.294Z,2.40
2017-12-16T00:18:38.174Z,2.90
2017-12-16T00:21:06.657Z,1.77
2017-12-16T00:23:37.091Z,2.30
2017-12-16T00:26:05.608Z,1.83
2017-12-16T00:28:34.037Z,3.87
2017-12-16T00:31:02.454Z,2.50
2017-12-16T00:33:30.830Z,2.33
2017-12-16T00:36:01.113Z,3.47
2017-12-16T00:38:29.985Z,2.90
2017-12-16T00:43:30.939Z,2.87
2017-12-16T00:48:32.006Z,2.20
2017-12-16T00:51:03.739Z,2.80
2017-12-16T00:53:32.203Z,2.93
2017-12-16T00:58:36.719Z,2.23
2017-12-16T01:01:05.365Z,2.87
2017-12-16T01:03:33.929Z,2.77
2017-12-16T01:08:36.533Z,2.60
2017-12-16T01:11:04.931Z,2.20
2017-12-16T01:13:33.351Z,2.63
2017-12-16T01:16:01.913Z,2.33
2017-12-16T01:18:31.078Z,2.20
2017-12-16T01:20:59.555Z,2.17
2017-12-16T01:23:27.953Z,2.90
2017-12-16T01:25:56.395Z,2.00
2017-12-16T01:28:24.697Z,1.73
2017-12-16T01:30:57.218Z,2.50
2017-12-16T01:33:37.435Z,2.20
2017-12-16T01:36:17.716Z,2.60
2017-12-16T01:41:18.837Z,1.33
2017-12-16T01:43:47.219Z,1.80
2017-12-16T01:46:15.578Z,2.47
2017-12-16T01:48:44.063Z,2.40
2017-12-16T01:51:16.698Z,2.13
2017-12-16T01:53:45.124Z,1.60
2017-12-16T01:56:13.490Z,1.83
2017-12-16T01:58:41.840Z,2.20
2017-12-16T02:01:10.274Z,2.13
2017-12-16T02:03:39.547Z,1.80
2017-12-16T02:06:07.906Z,2.10
2017-12-16T02:08:36.357Z,1.90
2017-12-16T02:11:04.741Z,2.47
2017-12-16T02:13:33.151Z,1.97
2017-12-16T02:16:05.088Z,2.17
2017-12-16T02:18:33.443Z,2.20
2017-12-16T02:21:01.786Z,2.13
2017-12-16T02:23:31.226Z,2.00
2017-12-16T02:25:59.634Z,2.20
2017-12-16T02:28:28.019Z,2.10
2017-12-16T02:30:59.998Z,1.70
2017-12-16T02:33:28.312Z,2.03
2017-12-16T02:35:56.655Z,2.43
2017-12-16T02:38:24.984Z,2.00
2017-12-16T02:40:53.377Z,2.40
2017-12-16T02:43:21.803Z,2.20
2017-12-16T02:45:50.129Z,1.47
2017-12-16T02:48:18.821Z,1.90
2017-12-16T02:50:47.210Z,2.50
2017-12-16T02:53:16.089Z,2.50
2017-12-16T02:55:44.477Z,1.93
2017-12-16T02:58:12.893Z,1.47
2017-12-16T03:00:41.712Z,1.70
2017-12-16T03:03:10.114Z,2.03
2017-12-16T03:05:38.441Z,1.83
2017-12-16T03:08:06.833Z,2.57
2017-12-16T03:10:35.251Z,1.93
2017-12-16T03:13:03.590Z,2.20
2017-12-16T03:15:32.042Z,1.87
2017-12-16T03:18:00.438Z,2.13
2017-12-16T03:20:28.769Z,2.20
2017-12-16T03:22:57.243Z,2.33
2017-12-16T03:25:25.593Z,2.03
2017-12-16T03:27:54.113Z,1.73
2017-12-16T03:30:22.553Z,2.57
2017-12-16T03:32:50.907Z,2.43
2017-12-16T03:35:19.225Z,2.40
2017-12-16T03:37:47.604Z,2.17
2017-12-16T03:40:16.042Z,1.80
2017-12-16T03:42:44.356Z,1.77
2017-12-16T03:45:12.706Z,1.63
2017-12-16T03:47:41.251Z,1.87
2017-12-16T03:50:09.563Z,1.23
2017-12-16T03:52:37.908Z,2.50
2017-12-16T03:55:06.267Z,1.60
2017-12-16T03:57:34.718Z,1.90
2017-12-16T04:00:03.126Z,2.03
2017-12-16T04:02:31.465Z,1.57
2017-12-16T04:04:59.933Z,1.97
2017-12-16T04:07:28.283Z,1.60
2017-12-16T04:09:56.734Z,2.30
2017-12-16T04:12:25.495Z,1.77
2017-12-16T04:14:53.977Z,1.40
2017-12-16T04:17:22.315Z,1.50
2017-12-16T04:19:50.671Z,1.40
2017-12-16T04:22:19.010Z,1.97
2017-12-16T04:24:47.426Z,2.80
2017-12-16T04:27:15.850Z,2.23
2017-12-16T04:29:44.164Z,2.13
2017-12-16T04:32:12.585Z,1.57
2017-12-16T04:34:40.981Z,1.80
2017-12-16T04:37:09.301Z,2.13
2017-12-16T04:39:37.820Z,1.63
2017-12-16T04:42:06.237Z,2.17
2017-12-16T04:44:34.589Z,2.17
2017-12-16T04:47:02.963Z,1.60
2017-12-16T04:49:31.372Z,2.10
2017-12-16T04:51:59.748Z,1.87
2017-12-16T04:54:28.216Z,1.70
2017-12-16T04:56:56.675Z,1.80
2017-12-16T04:59:25.092Z,1.83
2017-12-16T05:01:53.532Z,2.50
2017-12-16T05:04:21.901Z,2.00
2017-12-16T05:06:50.302Z,1.87
2017-12-16T05:09:18.713Z,2.13
2017-12-16T05:11:47.049Z,1.53
2017-12-16T05:14:15.429Z,2.33
2017-12-16T05:16:43.836Z,1.90
2017-12-16T05:19:12.199Z,2.07
2017-12-16T05:21:40.705Z,1.47
2017-12-16T05:24:09.341Z,1.70
2017-12-16T05:26:38.132Z,1.60
2017-12-16T05:29:06.475Z,2.33
2017-12-16T05:31:36.716Z,2.80
2017-12-16T05:34:05.056Z,2.10
2017-12-16T05:36:35.591Z,2.10
2017-12-16T05:39:04.109Z,3.00
2017-12-16T05:41:32.618Z,2.23
2017-12-16T05:44:01.953Z,2.63
2017-12-16T05:46:30.780Z,2.27
2017-12-16T05:48:59.253Z,2.13
2017-12-16T05:51:27.766Z,2.90
2017-12-16T05:53:56.397Z,2.40
2017-12-16T05:56:24.949Z,1.67
2017-12-16T05:58:53.355Z,2.17
2017-12-16T06:01:21.746Z,1.53
2017-12-16T06:03:50.236Z,2.13
2017-12-16T06:06:18.941Z,1.83
2017-12-16T06:08:48.181Z,2.00
2017-12-16T06:11:33.778Z,1.90
2017-12-16T06:14:02.564Z,2.53
2017-12-16T06:16:31.068Z,1.63
2017-12-16T06:18:59.964Z,2.50
2017-12-16T06:21:28.350Z,1.83
2017-12-16T06:23:56.781Z,2.00
2017-12-16T06:26:27.778Z,2.17
2017-12-16T06:28:56.254Z,2.73
2017-12-16T06:31:24.665Z,1.80
2017-12-16T06:33:53.004Z,2.53
2017-12-16T06:36:21.374Z,2.63
2017-12-16T06:41:22.712Z,2.03
2017-12-16T06:43:51.107Z,2.10
2017-12-16T06:46:19.497Z,2.50
2017-12-16T06:48:48.039Z,3.10
2017-12-16T06:51:16.724Z,2.40
2017-12-16T06:53:45.436Z,2.27
2017-12-16T06:56:13.777Z,2.17
2017-12-16T06:58:42.170Z,2.83
2017-12-16T07:01:10.549Z,1.90
2017-12-16T07:03:40.115Z,2.27
2017-12-16T07:06:08.579Z,2.50
2017-12-16T07:08:37.273Z,1.67
2017-12-16T07:11:05.796Z,2.53
2017-12-16T07:13:34.245Z,2.40
2017-12-16T07:18:35.784Z,2.13
2017-12-16T07:21:06.274Z,2.70
2017-12-16T07:26:07.542Z,2.00
2017-12-16T07:28:36.206Z,2.50
2017-12-16T07:33:37.050Z,2.37
2017-12-16T07:36:05.518Z,2.80
2017-12-16T07:41:06.507Z,2.93
2017-12-16T07:43:35.053Z,2.57
2017-12-16T07:46:03.807Z,2.60
2017-12-16T07:51:04.714Z,2.93
2017-12-16T07:53:33.340Z,3.07
2017-12-16T07:56:01.763Z,2.47
2017-12-16T07:58:30.123Z,3.20
2017-12-16T08:00:59.384Z,2.50
2017-12-16T08:03:27.857Z,3.00
2017-12-16T08:08:28.780Z,3.90
2017-12-16T08:10:57.283Z,4.20
2017-12-16T08:15:58.500Z,3.67
2017-12-16T08:18:27.407Z,3.93
2017-12-16T08:21:00.411Z,3.53
2017-12-16T08:23:28.939Z,3.80
2017-12-16T08:28:33.377Z,3.07
2017-12-16T08:38:41.670Z,3.53
2017-12-16T08:41:30.574Z,4.40
2017-12-16T08:46:32.075Z,4.00
2017-12-16T08:49:01.659Z,3.73
2017-12-16T08:59:13.326Z,5.10
2017-12-16T09:01:43.815Z,4.87
2017-12-16T09:06:47.365Z,5.60
2017-12-16T09:09:16.360Z,5.27
2017-12-16T09:11:49.170Z,5.47
2017-12-16T09:14:19.215Z,5.97
2017-12-16T09:16:48.090Z,5.80
2017-12-16T09:19:16.598Z,7.67
2017-12-16T09:24:22.069Z,5.93
2017-12-16T09:29:23.607Z,6.20
2017-12-16T09:31:54.349Z,9.10
2017-12-16T09:36:58.865Z,6.97
2017-12-16T09:42:00.691Z,7.17
2017-12-16T09:44:30.257Z,7.47
2017-12-16T09:49:31.502Z,7.73
2017-12-16T09:52:01.685Z,8.60
2017-12-16T09:54:32.657Z,8.10
2017-12-16T10:03:25.488Z,7.77
2017-12-16T10:05:54.032Z,8.20
2017-12-16T10:08:22.592Z,8.60
2017-12-16T10:13:26.543Z,8.40
2017-12-16T10:15:58.363Z,8.80
2017-12-16T10:21:01.439Z,8.73
2017-12-16T10:23:29.851Z,8.20
2017-12-16T10:25:58.886Z,7.93
2017-12-16T10:28:27.193Z,10.53
2017-12-16T10:30:57.968Z,7.90
2017-12-16T10:36:00.969Z,9.37
2017-12-16T10:41:01.930Z,8.80
2017-12-16T10:43:30.404Z,7.73
2017-12-16T10:45:59.682Z,8.50
2017-12-16T10:48:30.249Z,9.13
2017-12-16T10:50:58.854Z,8.10
2017-12-16T10:55:59.802Z,7.70
2017-12-16T10:58:28.235Z,7.80
2017-12-16T11:00:56.606Z,6.90
2017-12-16T11:03:33.004Z,8.03
2017-12-16T11:06:01.977Z,6.43
2017-12-16T11:08:31.581Z,7.73
2017-12-16T11:11:00.525Z,9.07
2017-12-16T11:13:29.199Z,10.00
2017-12-16T11:18:31.328Z,9.10
2017-12-16T11:21:00.157Z,8.50
2017-12-16T11:23:29.133Z,8.77
2017-12-16T11:25:57.694Z,8.00
2017-12-16T11:28:26.156Z,8.40
2017-12-16T11:30:54.883Z,7.20
2017-12-16T11:33:24.982Z,7.97
2017-12-16T11:38:27.161Z,8.40
2017-12-16T11:40:57.592Z,7.80
2017-12-16T11:43:28.578Z,10.10
2017-12-16T11:45:57.400Z,8.83
2017-12-16T11:48:27.942Z,8.50
2017-12-16T11:54:06.517Z,7.75
2017-12-16T11:56:36.223Z,8.07
2017-12-16T11:59:04.889Z,7.80
2017-12-16T12:01:33.466Z,9.17
2017-12-16T12:04:02.822Z,8.10
2017-12-16T12:09:20.893Z,7.73
2017-12-16T12:11:49.633Z,7.77
2017-12-16T12:14:18.780Z,6.80
2017-12-16T12:16:48.816Z,6.70
2017-12-16T12:21:50.887Z,6.37
2017-12-16T12:26:52.031Z,7.03
2017-12-16T12:29:20.896Z,7.57
2017-12-16T12:31:49.917Z,7.20
2017-12-16T12:34:37.826Z,6.57
2017-12-16T12:37:15.097Z,6.60
2017-12-16T12:39:45.658Z,5.80
2017-12-16T12:42:14.308Z,7.07
2017-12-16T12:44:43.950Z,6.47
2017-12-16T12:47:12.498Z,5.70
2017-12-16T12:49:41.268Z,5.97
2017-12-16T12:52:09.724Z,5.93
2017-12-16T12:54:38.369Z,4.83
2017-12-16T12:57:07.232Z,6.10
2017-12-16T12:59:36.011Z,4.93
2017-12-16T13:02:08.586Z,5.00
2017-12-16T13:04:37.352Z,5.80
2017-12-16T13:07:06.385Z,5.77
2017-12-16T13:09:34.780Z,5.20
2017-12-16T13:12:04.149Z,6.43
2017-12-16T13:17:08.329Z,5.63
2017-12-16T13:19:36.839Z,5.73
2017-12-16T13:22:05.300Z,5.10
2017-12-16T13:24:33.731Z,6.20
2017-12-16T13:27:03.851Z,5.10
2017-12-16T13:29:32.206Z,5.67
2017-12-16T13:32:00.569Z,6.00
2017-12-16T13:34:30.485Z,5.17
2017-12-16T13:36:58.903Z,5.43
2017-12-16T13:39:28.203Z,6.30
2017-12-16T13:41:56.597Z,6.97
2017-12-16T13:44:25.013Z,7.23
2017-12-16T13:47:05.525Z,7.33
2017-12-16T13:49:35.029Z,8.70
2017-12-16T13:54:38.083Z,10.57
2017-12-16T13:57:07.421Z,11.10
2017-12-16T13:59:36.715Z,10.87
2017-12-16T14:02:05.074Z,10.70
2017-12-16T14:04:33.593Z,12.17
2017-12-16T14:07:02.586Z,12.23
2017-12-16T14:09:31.374Z,13.20
2017-12-16T14:14:41.350Z,12.60
2017-12-16T14:17:15.239Z,11.40
2017-12-16T14:19:43.666Z,11.00
2017-12-16T14:22:12.012Z,12.67
2017-12-16T14:24:41.904Z,12.73
2017-12-16T14:27:25.920Z,13.13
2017-12-16T14:29:55.647Z,13.50
2017-12-16T14:35:18.423Z,13.80
2017-12-16T14:37:49.321Z,17.43
2017-12-16T14:40:18.592Z,16.60
2017-12-16T14:42:47.058Z,16.63
2017-12-16T14:45:15.478Z,19.23
2017-12-16T14:47:43.917Z,20.53
2017-12-16T14:50:12.536Z,20.93
2017-12-16T14:52:41.183Z,19.17
2017-12-16T14:55:09.699Z,21.63
2017-12-16T14:57:38.193Z,19.17
2017-12-16T15:00:06.733Z,19.90
2017-12-16T15:02:37.190Z,21.37
2017-12-16T15:05:05.609Z,18.70
2017-12-16T15:07:33.935Z,21.60
2017-12-16T15:10:02.328Z,18.20
2017-12-16T15:12:32.052Z,18.23
2017-12-16T15:15:00.477Z,17.70
2017-12-16T15:17:29.076Z,20.03
2017-12-16T15:19:59.406Z,18.10
2017-12-16T15:22:27.747Z,20.03
2017-12-16T15:24:56.637Z,20.00
2017-12-16T15:27:25.253Z,20.47
2017-12-16T15:29:53.914Z,21.37
2017-12-16T15:32:22.301Z,19.40
2017-12-16T15:34:50.666Z,21.70
2017-12-16T15:37:21.884Z,21.97
2017-12-16T15:39:50.835Z,21.37
2017-12-16T15:44:54.153Z,22.07
2017-12-16T15:47:22.589Z,20.43
2017-12-16T15:49:51.901Z,21.30
2017-12-16T15:52:20.455Z,23.17
2017-12-16T15:54:49.193Z,24.03
2017-12-16T15:57:17.821Z,23.87
2017-12-16T15:59:47.817Z,21.30
2017-12-16T16:04:48.794Z,24.07
2017-12-16T16:07:17.983Z,24.43
2017-12-16T16:09:46.613Z,22.60
2017-12-16T16:12:15.070Z,22.87
2017-12-16T16:14:44.066Z,24.63
2017-12-16T16:17:12.658Z,23.83
2017-12-16T16:19:41.528Z,20.77
2017-12-16T16:22:09.982Z,23.17
2017-12-16T16:24:38.398Z,22.77
2017-12-16T16:29:39.758Z,19.27
2017-12-16T16:32:08.209Z,21.37
2017-12-16T16:34:36.864Z,20.77
2017-12-16T16:37:05.514Z,19.03
2017-12-16T16:39:34.433Z,19.20
2017-12-16T16:42:02.951Z,20.57
2017-12-16T16:44:35.147Z,17.90
2017-12-16T16:47:04.382Z,17.43
2017-12-16T16:52:16.249Z,18.30
2017-12-16T16:54:45.334Z,17.03
2017-12-16T16:57:13.966Z,16.93
2017-12-16T16:59:42.353Z,17.57
2017-12-16T17:02:12.274Z,18.03
2017-12-16T17:04:41.611Z,16.37
2017-12-16T17:07:10.294Z,16.57
2017-12-16T17:09:39.074Z,15.93
2017-12-16T17:12:09.002Z,17.00
2017-12-16T17:14:37.541Z,15.90
2017-12-16T17:17:06.317Z,15.97
2017-12-16T17:22:09.436Z,17.53
2017-12-16T17:24:39.676Z,16.47
2017-12-16T17:27:08.575Z,17.90
2017-12-16T17:29:37.085Z,17.40
2017-12-16T17:34:38.184Z,16.80
2017-12-16T17:37:08.567Z,18.33
2017-12-16T17:39:36.988Z,18.70
2017-12-16T17:42:07.610Z,16.73
2017-12-16T17:44:35.968Z,17.87
2017-12-16T17:47:04.396Z,17.47
2017-12-16T17:49:32.794Z,18.57
2017-12-16T17:52:01.336Z,17.97
2017-12-16T17:54:30.545Z,18.00
2017-12-16T17:56:59.249Z,18.93
2017-12-16T17:59:27.609Z,18.63
2017-12-16T18:01:56.734Z,19.50
2017-12-16T18:04:25.708Z,18.30
2017-12-16T18:06:54.797Z,19.30
2017-12-16T18:09:23.416Z,19.53
2017-12-16T18:11:51.768Z,17.87
2017-12-16T18:14:21.132Z,18.87
2017-12-16T18:16:49.807Z,19.30
2017-12-16T18:19:18.354Z,19.00
2017-12-16T18:21:47.027Z,18.97
2017-12-16T18:24:17.370Z,20.60
2017-12-16T18:26:46.431Z,19.57
2017-12-16T18:29:14.830Z,21.70
2017-12-16T18:31:43.329Z,18.90
2017-12-16T18:34:11.882Z,17.97
2017-12-16T18:36:40.547Z,19.37
2017-12-16T18:39:09.249Z,20.80
2017-12-16T18:41:37.711Z,21.00
2017-12-16T18:44:06.235Z,20.90
2017-12-16T18:46:35.426Z,21.07
2017-12-16T18:49:03.923Z,20.37
2017-12-16T18:51:32.246Z,24.27
2017-12-16T18:54:01.806Z,22.33
2017-12-16T18:56:30.211Z,21.53
2017-12-16T18:58:58.808Z,24.00
2017-12-16T19:01:27.262Z,25.53
2017-12-16T19:03:57.487Z,25.97
2017-12-16T19:06:26.302Z,26.80
2017-12-16T19:08:55.201Z,27.80
2017-12-16T19:11:23.889Z,28.67
2017-12-16T19:13:52.598Z,26.00
2017-12-16T19:16:21.094Z,27.23
2017-12-16T19:18:49.442Z,27.90
2017-12-16T19:21:17.810Z,26.17
2017-12-16T19:23:46.241Z,26.83
2017-12-16T19:26:21.082Z,31.80
2017-12-16T19:28:49.965Z,28.13
2017-12-16T19:31:18.397Z,25.43
2017-12-16T19:33:47.134Z,27.67
2017-12-16T19:36:15.471Z,24.77
2017-12-16T19:38:43.777Z,25.90
2017-12-16T19:41:13.036Z,24.93
2017-12-16T19:43:41.382Z,25.57
2017-12-16T19:46:10.084Z,24.90
2017-12-16T19:48:38.438Z,26.23
2017-12-16T19:51:06.748Z,25.83
2017-12-16T19:53:35.745Z,22.73
2017-12-16T19:56:04.111Z,24.37
2017-12-16T20:01:07.375Z,25.00
2017-12-16T20:03:35.721Z,25.97
2017-12-16T20:06:04.080Z,27.80
2017-12-16T20:08:32.540Z,25.50
2017-12-16T20:11:00.844Z,25.87
2017-12-16T20:13:29.193Z,27.60
2017-12-16T20:15:57.566Z,25.30
2017-12-16T20:18:25.939Z,27.37
2017-12-16T20:20:54.269Z,25.07
2017-12-16T20:23:22.822Z,26.23
2017-12-16T20:25:51.294Z,26.20
2017-12-16T20:28:19.609Z,28.10
2017-12-16T20:30:48.402Z,24.50
2017-12-16T20:33:16.775Z,25.63
2017-12-16T20:35:45.085Z,28.13
2017-12-16T20:38:13.417Z,26.70
2017-12-16T20:40:42.292Z,26.50
2017-12-16T20:43:10.735Z,29.63
2017-12-16T20:45:40.001Z,28.13
2017-12-16T20:48:08.477Z,28.70
2017-12-16T20:50:37.108Z,26.67
2017-12-16T20:53:08.754Z,26.83
2017-12-16T20:55:37.100Z,27.47
2017-12-16T20:58:05.444Z,28.40
2017-12-16T21:00:33.782Z,26.60
2017-12-16T21:03:02.149Z,28.47
2017-12-16T21:05:30.676Z,26.70
2017-12-16T21:07:59.053Z,25.63
2017-12-16T21:10:27.441Z,27.40
2017-12-16T21:12:55.769Z,27.00
2017-12-16T21:15:24.132Z,27.83
2017-12-16T21:17:52.500Z,26.93
2017-12-16T21:20:20.829Z,25.67
2017-12-16T21:22:49.161Z,26.23
2017-12-16T21:25:17.483Z,25.10
2017-12-16T21:27:45.944Z,23.30
2017-12-16T21:30:14.269Z,24.90
2017-12-16T21:32:42.576Z,23.20
2017-12-16T21:35:10.895Z,23.73
2017-12-16T21:37:39.232Z,23.10
2017-12-16T21:40:07.605Z,24.27
2017-12-16T21:42:35.931Z,25.87
2017-12-16T21:45:04.253Z,23.63
2017-12-16T21:47:32.601Z,23.43
2017-12-16T21:50:02.145Z,23.17
2017-12-16T21:52:30.447Z,20.03
2017-12-16T21:54:59.128Z,22.77
2017-12-16T21:57:27.451Z,23.87
2017-12-16T21:59:55.784Z,22.63
2017-12-16T22:02:24.163Z,26.20
2017-12-16T22:04:52.610Z,22.13
2017-12-16T22:07:20.944Z,23.77
2017-12-16T22:09:49.264Z,20.60
2017-12-16T22:12:17.740Z,24.17
2017-12-16T22:14:46.098Z,23.00
2017-12-16T22:17:14.417Z,22.03
2017-12-16T22:19:42.748Z,23.03
2017-12-16T22:22:11.104Z,23.50
2017-12-16T22:24:39.445Z,22.43
2017-12-16T22:27:08.050Z,23.67
2017-12-16T22:29:36.323Z,20.67
2017-12-16T22:32:04.702Z,23.43
2017-12-16T22:34:33.029Z,21.37
2017-12-16T22:37:01.412Z,22.27
2017-12-16T22:39:29.723Z,22.60
2017-12-16T22:41:58.056Z,22.87
2017-12-16T22:44:26.372Z,21.60
2017-12-16T22:46:54.776Z,21.53
2017-12-16T22:49:23.313Z,21.60
2017-12-16T22:51:51.634Z,21.10
2017-12-16T22:54:20.025Z,20.97
2017-12-16T22:56:48.369Z,22.40
2017-12-16T22:59:16.734Z,21.70
2017-12-16T23:01:45.093Z,19.83
2017-12-16T23:04:13.413Z,20.30
2017-12-16T23:06:41.759Z,20.63
2017-12-16T23:09:10.091Z,21.00
2017-12-16T23:11:38.438Z,21.03
2017-12-16T23:14:06.801Z,20.83
2017-12-16T23:16:35.109Z,22.37
2017-12-16T23:19:03.464Z,21.20
2017-12-16T23:21:32.885Z,21.53
2017-12-16T23:24:01.231Z,20.63
2017-12-16T23:26:29.581Z,21.50
2017-12-16T23:28:57.880Z,16.30
2017-12-16T23:31:26.268Z,18.50
2017-12-16T23:33:54.576Z,17.30
2017-12-16T23:36:22.900Z,19.00
2017-12-16T23:38:51.246Z,16.93
2017-12-16T23:41:19.591Z,19.20
2017-12-16T23:43:47.957Z,19.17
2017-12-16T23:46:16.281Z,19.30
2017-12-16T23:48:44.645Z,19.03
2017-12-16T23:51:13.070Z,15.90
2017-12-16T23:53:42.670Z,18.20
2017-12-16T23:56:11.011Z,19.90
2017-12-16T23:58:39.330Z,16.90
